sensor_id;sensor_type;location;lat;lon;timestamp;temperature;humidity
15178;DHT22;7689;53.612;-2.416;2022-09-01T00:01:14;14.00;99.90
15178;DHT22;7689;53.612;-2.416;2022-09-01T00:03:48;14.10;99.90
15178;DHT22;7689;53.612;-2.416;2022-09-01T00:06:18;14.00;99.90
15178;DHT22;7689;53.612;-2.416;2022-09-01T00:08:51;14.00;99.90
15178;DHT22;7689;53.612;-2.416;2022-09-01T00:11:18;14.00;99.90
15178;DHT22;7689;53.612;-2.416;2022-09-01T00:13:44;14.00;99.90
15178;DHT22;7689;53.612;-2.416;2022-09-01T00:16:10;14.00;99.90
15178;DHT22;7689;53.612;-2.416;2022-09-01T00:18:39;14.00;99.90
15178;DHT22;7689;53.612;-2.416;2022-09-01T00:21:07;14.00;99.90
15178;DHT22;7689;53.612;-2.416;2022-09-01T00:23:32;14.00;99.90
15178;DHT22;7689;53.612;-2.416;2022-09-01T00:25:58;14.00;99.90
15178;DHT22;7689;53.612;-2.416;2022-09-01T00:28:24;13.30;99.90
15178;DHT22;7689;53.612;-2.416;2022-09-01T00:30:49;13.90;99.90
15178;DHT22;7689;53.612;-2.416;2022-09-01T00:33:15;13.90;99.90
15178;DHT22;7689;53.612;-2.416;2022-09-01T00:35:41;13.90;99.90
15178;DHT22;7689;53.612;-2.416;2022-09-01T00:38:06;13.90;99.90
15178;DHT22;7689;53.612;-2.416;2022-09-01T00:40:32;13.90;99.90
15178;DHT22;7689;53.612;-2.416;2022-09-01T00:42:59;13.90;99.90
15178;DHT22;7689;53.612;-2.416;2022-09-01T00:45:24;13.90;99.90
15178;DHT22;7689;53.612;-2.416;2022-09-01T00:47:50;13.90;99.90
15178;DHT22;7689;53.612;-2.416;2022-09-01T00:50:17;13.90;99.90
15178;DHT22;7689;53.612;-2.416;2022-09-01T00:52:51;11.30;99.90
15178;DHT22;7689;53.612;-2.416;2022-09-01T00:55:22;13.90;99.90
15178;DHT22;7689;53.612;-2.416;2022-09-01T00:57:49;13.90;99.90
15178;DHT22;7689;53.612;-2.416;2022-09-01T01:00:24;13.90;99.90
15178;DHT22;7689;53.612;-2.416;2022-09-01T01:02:51;13.90;99.90
15178;DHT22;7689;53.612;-2.416;2022-09-01T01:05:25;13.90;99.90
15178;DHT22;7689;53.612;-2.416;2022-09-01T01:07:53;13.90;99.90
15178;DHT22;7689;53.612;-2.416;2022-09-01T01:10:20;13.80;99.90
15178;DHT22;7689;53.612;-2.416;2022-09-01T01:12:47;13.70;99.90
15178;DHT22;7689;53.612;-2.416;2022-09-01T01:15:17;13.70;99.90
15178;DHT22;7689;53.612;-2.416;2022-09-01T01:17:42;13.70;99.90
15178;DHT22;7689;53.612;-2.416;2022-09-01T01:20:09;13.70;99.90
15178;DHT22;7689;53.612;-2.416;2022-09-01T01:25:51;13.70;99.90
15178;DHT22;7689;53.612;-2.416;2022-09-01T01:28:28;13.70;99.90
15178;DHT22;7689;53.612;-2.416;2022-09-01T01:31:00;13.60;99.90
15178;DHT22;7689;53.612;-2.416;2022-09-01T01:33:39;13.60;99.90
15178;DHT22;7689;53.612;-2.416;2022-09-01T01:36:08;13.60;99.90
15178;DHT22;7689;53.612;-2.416;2022-09-01T01:38:41;13.60;99.90
15178;DHT22;7689;53.612;-2.416;2022-09-01T01:41:11;13.60;99.90
15178;DHT22;7689;53.612;-2.416;2022-09-01T01:43:38;13.60;99.90
15178;DHT22;7689;53.612;-2.416;2022-09-01T01:46:06;13.60;99.90
15178;DHT22;7689;53.612;-2.416;2022-09-01T01:48:33;13.60;99.90
15178;DHT22;7689;53.612;-2.416;2022-09-01T01:51:02;13.60;99.90
15178;DHT22;7689;53.612;-2.416;2022-09-01T01:53:29;13.60;99.90
15178;DHT22;7689;53.612;-2.416;2022-09-01T01:55:56;13.60;99.90
15178;DHT22;7689;53.612;-2.416;2022-09-01T01:58:23;13.70;99.90
15178;DHT22;7689;53.612;-2.416;2022-09-01T02:00:51;13.70;99.90
15178;DHT22;7689;53.612;-2.416;2022-09-01T02:03:21;13.80;99.90
15178;DHT22;7689;53.612;-2.416;2022-09-01T02:05:49;13.80;99.90
15178;DHT22;7689;53.612;-2.416;2022-09-01T02:08:17;13.80;99.90
15178;DHT22;7689;53.612;-2.416;2022-09-01T02:10:47;13.90;99.90
15178;DHT22;7689;53.612;-2.416;2022-09-01T02:13:15;13.90;99.90
15178;DHT22;7689;53.612;-2.416;2022-09-01T02:15:44;13.90;99.90
15178;DHT22;7689;53.612;-2.416;2022-09-01T02:20:41;14.00;99.90
15178;DHT22;7689;53.612;-2.416;2022-09-01T02:23:08;14.00;99.90
15178;DHT22;7689;53.612;-2.416;2022-09-01T02:25:37;14.10;99.90
15178;DHT22;7689;53.612;-2.416;2022-09-01T02:28:03;14.10;99.90
15178;DHT22;7689;53.612;-2.416;2022-09-01T02:30:34;14.10;99.90
15178;DHT22;7689;53.612;-2.416;2022-09-01T02:33:01;14.10;99.90
15178;DHT22;7689;53.612;-2.416;2022-09-01T02:35:27;14.10;99.90
15178;DHT22;7689;53.612;-2.416;2022-09-01T02:37:56;14.10;99.90
15178;DHT22;7689;53.612;-2.416;2022-09-01T02:40:24;14.00;99.90
15178;DHT22;7689;53.612;-2.416;2022-09-01T02:42:50;14.10;99.90
15178;DHT22;7689;53.612;-2.416;2022-09-01T02:45:19;14.10;99.90
15178;DHT22;7689;53.612;-2.416;2022-09-01T02:47:45;14.10;99.90
15178;DHT22;7689;53.612;-2.416;2022-09-01T02:50:13;14.10;99.90
15178;DHT22;7689;53.612;-2.416;2022-09-01T02:52:42;14.20;99.90
15178;DHT22;7689;53.612;-2.416;2022-09-01T02:55:08;14.20;99.90
15178;DHT22;7689;53.612;-2.416;2022-09-01T02:57:34;14.30;99.90
15178;DHT22;7689;53.612;-2.416;2022-09-01T03:00:01;14.30;99.90
15178;DHT22;7689;53.612;-2.416;2022-09-01T03:02:27;14.30;99.90
15178;DHT22;7689;53.612;-2.416;2022-09-01T03:04:54;14.30;99.90
15178;DHT22;7689;53.612;-2.416;2022-09-01T03:07:20;14.30;99.90
15178;DHT22;7689;53.612;-2.416;2022-09-01T03:09:48;14.40;99.90
15178;DHT22;7689;53.612;-2.416;2022-09-01T03:12:14;14.40;99.90
15178;DHT22;7689;53.612;-2.416;2022-09-01T03:14:39;14.40;99.90
15178;DHT22;7689;53.612;-2.416;2022-09-01T03:17:05;14.30;99.90
15178;DHT22;7689;53.612;-2.416;2022-09-01T03:19:30;14.30;99.90
15178;DHT22;7689;53.612;-2.416;2022-09-01T03:22:04;14.30;99.90
15178;DHT22;7689;53.612;-2.416;2022-09-01T03:24:30;14.30;99.90
15178;DHT22;7689;53.612;-2.416;2022-09-01T03:26:56;14.30;99.90
15178;DHT22;7689;53.612;-2.416;2022-09-01T03:29:22;14.40;99.90
15178;DHT22;7689;53.612;-2.416;2022-09-01T03:31:49;14.30;99.90
15178;DHT22;7689;53.612;-2.416;2022-09-01T03:34:14;14.40;99.90
15178;DHT22;7689;53.612;-2.416;2022-09-01T03:36:41;14.30;99.90
15178;DHT22;7689;53.612;-2.416;2022-09-01T03:39:15;14.40;99.90
15178;DHT22;7689;53.612;-2.416;2022-09-01T03:41:41;14.40;99.90
15178;DHT22;7689;53.612;-2.416;2022-09-01T03:44:07;14.30;99.90
15178;DHT22;7689;53.612;-2.416;2022-09-01T03:46:36;14.30;99.90
15178;DHT22;7689;53.612;-2.416;2022-09-01T03:49:05;14.30;99.90
15178;DHT22;7689;53.612;-2.416;2022-09-01T03:51:32;14.20;99.90
15178;DHT22;7689;53.612;-2.416;2022-09-01T03:53:58;14.20;99.90
15178;DHT22;7689;53.612;-2.416;2022-09-01T03:56:26;14.10;99.90
15178;DHT22;7689;53.612;-2.416;2022-09-01T03:58:54;14.10;99.90
15178;DHT22;7689;53.612;-2.416;2022-09-01T04:01:20;14.00;99.90
15178;DHT22;7689;53.612;-2.416;2022-09-01T04:03:46;14.00;99.90
15178;DHT22;7689;53.612;-2.416;2022-09-01T04:06:14;14.00;99.90
15178;DHT22;7689;53.612;-2.416;2022-09-01T04:08:43;13.90;99.90
15178;DHT22;7689;53.612;-2.416;2022-09-01T04:11:15;13.90;99.90
15178;DHT22;7689;53.612;-2.416;2022-09-01T04:13:43;13.90;99.90
15178;DHT22;7689;53.612;-2.416;2022-09-01T04:16:30;13.90;99.90
15178;DHT22;7689;53.612;-2.416;2022-09-01T04:19:16;13.90;99.90
15178;DHT22;7689;53.612;-2.416;2022-09-01T04:21:51;13.90;99.90
15178;DHT22;7689;53.612;-2.416;2022-09-01T04:24:21;13.80;99.90
15178;DHT22;7689;53.612;-2.416;2022-09-01T04:26:54;13.80;99.90
15178;DHT22;7689;53.612;-2.416;2022-09-01T04:29:21;13.80;99.90
15178;DHT22;7689;53.612;-2.416;2022-09-01T04:31:54;13.80;99.90
15178;DHT22;7689;53.612;-2.416;2022-09-01T04:34:21;13.90;99.90
15178;DHT22;7689;53.612;-2.416;2022-09-01T04:36:47;13.90;99.90
15178;DHT22;7689;53.612;-2.416;2022-09-01T04:39:17;13.90;99.90
15178;DHT22;7689;53.612;-2.416;2022-09-01T04:41:44;13.80;99.90
15178;DHT22;7689;53.612;-2.416;2022-09-01T04:44:11;13.80;99.90
15178;DHT22;7689;53.612;-2.416;2022-09-01T04:46:39;13.80;99.90
15178;DHT22;7689;53.612;-2.416;2022-09-01T04:49:11;13.90;99.90
15178;DHT22;7689;53.612;-2.416;2022-09-01T04:51:42;13.80;99.90
15178;DHT22;7689;53.612;-2.416;2022-09-01T04:54:09;13.80;99.90
15178;DHT22;7689;53.612;-2.416;2022-09-01T04:56:43;13.80;99.90
15178;DHT22;7689;53.612;-2.416;2022-09-01T04:59:10;13.80;99.90
15178;DHT22;7689;53.612;-2.416;2022-09-01T05:01:37;13.80;99.90
15178;DHT22;7689;53.612;-2.416;2022-09-01T05:04:20;13.80;99.90
15178;DHT22;7689;53.612;-2.416;2022-09-01T05:06:52;13.70;99.90
15178;DHT22;7689;53.612;-2.416;2022-09-01T05:09:24;13.70;99.90
15178;DHT22;7689;53.612;-2.416;2022-09-01T05:11:50;13.70;99.90
15178;DHT22;7689;53.612;-2.416;2022-09-01T05:14:18;13.60;99.90
15178;DHT22;7689;53.612;-2.416;2022-09-01T05:16:46;13.60;99.90
15178;DHT22;7689;53.612;-2.416;2022-09-01T05:19:12;13.70;99.90
15178;DHT22;7689;53.612;-2.416;2022-09-01T05:21:44;13.70;99.90
15178;DHT22;7689;53.612;-2.416;2022-09-01T05:24:12;13.70;99.90
15178;DHT22;7689;53.612;-2.416;2022-09-01T05:26:39;13.60;99.90
15178;DHT22;7689;53.612;-2.416;2022-09-01T05:29:06;13.60;99.90
15178;DHT22;7689;53.612;-2.416;2022-09-01T05:31:40;13.60;99.90
15178;DHT22;7689;53.612;-2.416;2022-09-01T05:34:06;13.60;99.90
15178;DHT22;7689;53.612;-2.416;2022-09-01T05:36:34;13.60;99.90
15178;DHT22;7689;53.612;-2.416;2022-09-01T05:39:02;13.60;99.90
15178;DHT22;7689;53.612;-2.416;2022-09-01T05:41:29;13.60;99.90
15178;DHT22;7689;53.612;-2.416;2022-09-01T05:43:55;13.70;99.90
15178;DHT22;7689;53.612;-2.416;2022-09-01T05:46:23;13.70;99.90
15178;DHT22;7689;53.612;-2.416;2022-09-01T05:48:50;13.70;99.90
15178;DHT22;7689;53.612;-2.416;2022-09-01T05:51:19;13.70;99.90
15178;DHT22;7689;53.612;-2.416;2022-09-01T05:53:46;13.70;99.90
15178;DHT22;7689;53.612;-2.416;2022-09-01T05:56:16;13.70;99.90
15178;DHT22;7689;53.612;-2.416;2022-09-01T05:58:44;13.70;99.90
15178;DHT22;7689;53.612;-2.416;2022-09-01T06:01:17;14.00;99.90
15178;DHT22;7689;53.612;-2.416;2022-09-01T06:03:47;14.20;99.90
15178;DHT22;7689;53.612;-2.416;2022-09-01T06:06:13;14.40;99.90
15178;DHT22;7689;53.612;-2.416;2022-09-01T06:08:39;14.60;99.90
15178;DHT22;7689;53.612;-2.416;2022-09-01T06:11:07;14.80;99.90
15178;DHT22;7689;53.612;-2.416;2022-09-01T06:13:38;15.20;99.90
15178;DHT22;7689;53.612;-2.416;2022-09-01T06:16:10;15.70;99.90
15178;DHT22;7689;53.612;-2.416;2022-09-01T06:18:39;15.80;99.90
15178;DHT22;7689;53.612;-2.416;2022-09-01T06:21:05;15.80;99.90
15178;DHT22;7689;53.612;-2.416;2022-09-01T06:23:34;16.10;99.90
15178;DHT22;7689;53.612;-2.416;2022-09-01T06:26:01;16.60;99.90
15178;DHT22;7689;53.612;-2.416;2022-09-01T06:28:28;16.80;99.90
15178;DHT22;7689;53.612;-2.416;2022-09-01T06:30:55;17.20;99.90
15178;DHT22;7689;53.612;-2.416;2022-09-01T06:33:22;17.00;99.90
15178;DHT22;7689;53.612;-2.416;2022-09-01T06:35:50;16.40;99.90
15178;DHT22;7689;53.612;-2.416;2022-09-01T06:38:17;15.90;99.90
15178;DHT22;7689;53.612;-2.416;2022-09-01T06:40:44;15.40;99.90
15178;DHT22;7689;53.612;-2.416;2022-09-01T06:43:11;15.10;99.90
15178;DHT22;7689;53.612;-2.416;2022-09-01T06:45:43;15.00;99.90
15178;DHT22;7689;53.612;-2.416;2022-09-01T06:48:09;15.10;99.90
15178;DHT22;7689;53.612;-2.416;2022-09-01T06:50:40;15.80;99.90
15178;DHT22;7689;53.612;-2.416;2022-09-01T06:53:07;15.80;99.90
15178;DHT22;7689;53.612;-2.416;2022-09-01T06:55:37;15.60;99.90
15178;DHT22;7689;53.612;-2.416;2022-09-01T06:58:07;15.40;99.90
15178;DHT22;7689;53.612;-2.416;2022-09-01T07:00:35;15.30;99.90
15178;DHT22;7689;53.612;-2.416;2022-09-01T07:03:07;15.20;99.90
15178;DHT22;7689;53.612;-2.416;2022-09-01T07:05:38;15.20;99.90
15178;DHT22;7689;53.612;-2.416;2022-09-01T07:08:05;15.30;99.90
15178;DHT22;7689;53.612;-2.416;2022-09-01T07:10:40;16.10;99.90
15178;DHT22;7689;53.612;-2.416;2022-09-01T07:13:13;16.70;99.90
15178;DHT22;7689;53.612;-2.416;2022-09-01T07:15:51;17.50;99.90
15178;DHT22;7689;53.612;-2.416;2022-09-01T07:18:21;17.50;99.90
15178;DHT22;7689;53.612;-2.416;2022-09-01T07:20:50;17.20;99.90
15178;DHT22;7689;53.612;-2.416;2022-09-01T07:23:16;17.50;99.90
15178;DHT22;7689;53.612;-2.416;2022-09-01T07:25:43;17.50;99.90
15178;DHT22;7689;53.612;-2.416;2022-09-01T07:28:11;17.40;99.90
15178;DHT22;7689;53.612;-2.416;2022-09-01T07:30:44;17.00;99.90
15178;DHT22;7689;53.612;-2.416;2022-09-01T07:33:12;16.70;99.90
15178;DHT22;7689;53.612;-2.416;2022-09-01T07:35:39;16.70;99.90
15178;DHT22;7689;53.612;-2.416;2022-09-01T07:38:06;17.00;99.90
15178;DHT22;7689;53.612;-2.416;2022-09-01T07:40:36;17.20;99.90
15178;DHT22;7689;53.612;-2.416;2022-09-01T07:43:05;17.00;99.90
15178;DHT22;7689;53.612;-2.416;2022-09-01T07:45:36;17.00;99.90
15178;DHT22;7689;53.612;-2.416;2022-09-01T07:48:05;17.10;99.90
15178;DHT22;7689;53.612;-2.416;2022-09-01T07:50:41;17.00;99.90
15178;DHT22;7689;53.612;-2.416;2022-09-01T07:53:15;16.70;99.90
15178;DHT22;7689;53.612;-2.416;2022-09-01T07:55:46;16.90;99.90
15178;DHT22;7689;53.612;-2.416;2022-09-01T07:58:14;16.90;99.90
15178;DHT22;7689;53.612;-2.416;2022-09-01T08:00:40;17.10;99.90
15178;DHT22;7689;53.612;-2.416;2022-09-01T08:03:09;17.40;99.90
15178;DHT22;7689;53.612;-2.416;2022-09-01T08:05:35;17.40;99.90
15178;DHT22;7689;53.612;-2.416;2022-09-01T08:08:00;17.20;99.90
15178;DHT22;7689;53.612;-2.416;2022-09-01T08:10:26;16.80;99.90
15178;DHT22;7689;53.612;-2.416;2022-09-01T08:12:52;16.60;99.90
15178;DHT22;7689;53.612;-2.416;2022-09-01T08:15:17;16.60;99.90
15178;DHT22;7689;53.612;-2.416;2022-09-01T08:17:43;16.50;99.90
15178;DHT22;7689;53.612;-2.416;2022-09-01T08:20:10;16.60;99.90
15178;DHT22;7689;53.612;-2.416;2022-09-01T08:22:36;16.90;99.90
15178;DHT22;7689;53.612;-2.416;2022-09-01T08:25:05;16.90;99.90
15178;DHT22;7689;53.612;-2.416;2022-09-01T08:27:32;17.10;99.90
15178;DHT22;7689;53.612;-2.416;2022-09-01T08:30:02;17.30;99.90
15178;DHT22;7689;53.612;-2.416;2022-09-01T08:32:29;17.60;99.90
15178;DHT22;7689;53.612;-2.416;2022-09-01T08:34:55;17.80;99.90
15178;DHT22;7689;53.612;-2.416;2022-09-01T08:37:21;17.90;99.90
15178;DHT22;7689;53.612;-2.416;2022-09-01T08:39:47;18.00;99.90
15178;DHT22;7689;53.612;-2.416;2022-09-01T08:47:46;18.10;99.90
15178;DHT22;7689;53.612;-2.416;2022-09-01T08:50:13;18.10;99.90
15178;DHT22;7689;53.612;-2.416;2022-09-01T08:52:50;18.10;99.90
15178;DHT22;7689;53.612;-2.416;2022-09-01T08:55:44;18.10;99.90
15178;DHT22;7689;53.612;-2.416;2022-09-01T08:58:14;17.70;99.90
15178;DHT22;7689;53.612;-2.416;2022-09-01T09:00:44;17.70;99.90
15178;DHT22;7689;53.612;-2.416;2022-09-01T09:03:25;17.40;99.90
15178;DHT22;7689;53.612;-2.416;2022-09-01T09:06:32;17.40;99.90
15178;DHT22;7689;53.612;-2.416;2022-09-01T09:08:58;17.50;99.90
15178;DHT22;7689;53.612;-2.416;2022-09-01T09:11:48;17.80;99.90
15178;DHT22;7689;53.612;-2.416;2022-09-01T09:16:56;17.40;99.90
15178;DHT22;7689;53.612;-2.416;2022-09-01T09:19:28;17.40;99.90
15178;DHT22;7689;53.612;-2.416;2022-09-01T09:21:57;17.30;99.90
15178;DHT22;7689;53.612;-2.416;2022-09-01T09:27:22;17.20;99.90
15178;DHT22;7689;53.612;-2.416;2022-09-01T09:29:59;17.10;99.90
15178;DHT22;7689;53.612;-2.416;2022-09-01T09:35:38;16.90;99.90
15178;DHT22;7689;53.612;-2.416;2022-09-01T09:43:42;17.40;99.90
15178;DHT22;7689;53.612;-2.416;2022-09-01T09:51:39;17.60;99.90
15178;DHT22;7689;53.612;-2.416;2022-09-01T09:57:12;18.30;99.90
15178;DHT22;7689;53.612;-2.416;2022-09-01T10:04:57;18.90;99.90
15178;DHT22;7689;53.612;-2.416;2022-09-01T10:07:30;19.00;99.90
15178;DHT22;7689;53.612;-2.416;2022-09-01T10:09:59;19.00;99.90
15178;DHT22;7689;53.612;-2.416;2022-09-01T10:12:25;18.80;99.90
15178;DHT22;7689;53.612;-2.416;2022-09-01T10:15:04;17.80;99.90
15178;DHT22;7689;53.612;-2.416;2022-09-01T10:17:34;18.80;99.90
15178;DHT22;7689;53.612;-2.416;2022-09-01T10:20:16;18.70;99.90
15178;DHT22;7689;53.612;-2.416;2022-09-01T10:22:43;19.00;99.90
15178;DHT22;7689;53.612;-2.416;2022-09-01T10:25:15;19.00;99.90
15178;DHT22;7689;53.612;-2.416;2022-09-01T10:27:45;19.10;99.90
15178;DHT22;7689;53.612;-2.416;2022-09-01T10:30:17;19.20;99.90
15178;DHT22;7689;53.612;-2.416;2022-09-01T10:32:52;19.50;99.90
15178;DHT22;7689;53.612;-2.416;2022-09-01T10:35:23;19.50;99.90
15178;DHT22;7689;53.612;-2.416;2022-09-01T10:37:51;19.60;99.90
15178;DHT22;7689;53.612;-2.416;2022-09-01T10:40:33;19.80;99.90
15178;DHT22;7689;53.612;-2.416;2022-09-01T10:43:22;20.00;99.90
15178;DHT22;7689;53.612;-2.416;2022-09-01T10:45:50;20.10;99.90
15178;DHT22;7689;53.612;-2.416;2022-09-01T10:50:46;20.50;99.90
15178;DHT22;7689;53.612;-2.416;2022-09-01T10:56:35;20.50;99.90
15178;DHT22;7689;53.612;-2.416;2022-09-01T11:04:19;20.40;99.90
15178;DHT22;7689;53.612;-2.416;2022-09-01T11:06:54;20.60;99.90
15178;DHT22;7689;53.612;-2.416;2022-09-01T11:09:29;20.70;99.90
15178;DHT22;7689;53.612;-2.416;2022-09-01T11:12:02;20.60;99.90
15178;DHT22;7689;53.612;-2.416;2022-09-01T11:14:32;20.80;99.90
15178;DHT22;7689;53.612;-2.416;2022-09-01T11:22:41;20.10;99.90
15178;DHT22;7689;53.612;-2.416;2022-09-01T11:25:37;19.70;99.90
15178;DHT22;7689;53.612;-2.416;2022-09-01T11:30:58;20.00;99.90
15178;DHT22;7689;53.612;-2.416;2022-09-01T11:33:41;20.20;99.90
15178;DHT22;7689;53.612;-2.416;2022-09-01T11:44:19;20.50;99.90
15178;DHT22;7689;53.612;-2.416;2022-09-01T11:46:47;20.50;99.90
15178;DHT22;7689;53.612;-2.416;2022-09-01T11:49:33;20.40;99.90
15178;DHT22;7689;53.612;-2.416;2022-09-01T11:52:00;20.20;99.90
15178;DHT22;7689;53.612;-2.416;2022-09-01T11:54:31;20.40;99.90
15178;DHT22;7689;53.612;-2.416;2022-09-01T11:57:20;20.60;99.90
15178;DHT22;7689;53.612;-2.416;2022-09-01T11:59:46;20.50;99.90
15178;DHT22;7689;53.612;-2.416;2022-09-01T12:02:22;20.40;99.90
15178;DHT22;7689;53.612;-2.416;2022-09-01T12:04:51;20.50;99.90
15178;DHT22;7689;53.612;-2.416;2022-09-01T12:07:48;20.70;99.90
15178;DHT22;7689;53.612;-2.416;2022-09-01T12:12:46;21.00;99.90
15178;DHT22;7689;53.612;-2.416;2022-09-01T12:15:24;20.90;99.90
15178;DHT22;7689;53.612;-2.416;2022-09-01T12:17:51;20.70;99.90
15178;DHT22;7689;53.612;-2.416;2022-09-01T12:20:30;20.70;99.90
15178;DHT22;7689;53.612;-2.416;2022-09-01T12:23:00;20.60;99.90
15178;DHT22;7689;53.612;-2.416;2022-09-01T12:25:32;20.70;99.90
15178;DHT22;7689;53.612;-2.416;2022-09-01T12:28:00;20.50;99.90
15178;DHT22;7689;53.612;-2.416;2022-09-01T12:30:27;20.50;99.90
15178;DHT22;7689;53.612;-2.416;2022-09-01T12:32:53;20.80;99.90
15178;DHT22;7689;53.612;-2.416;2022-09-01T12:35:23;20.80;99.90
15178;DHT22;7689;53.612;-2.416;2022-09-01T12:37:50;20.90;99.90
15178;DHT22;7689;53.612;-2.416;2022-09-01T12:40:35;20.90;99.90
15178;DHT22;7689;53.612;-2.416;2022-09-01T12:43:01;21.00;99.90
15178;DHT22;7689;53.612;-2.416;2022-09-01T12:45:45;21.00;99.90
15178;DHT22;7689;53.612;-2.416;2022-09-01T12:48:27;20.70;99.90
15178;DHT22;7689;53.612;-2.416;2022-09-01T12:50:58;20.70;99.90
15178;DHT22;7689;53.612;-2.416;2022-09-01T12:53:26;21.00;99.90
15178;DHT22;7689;53.612;-2.416;2022-09-01T12:56:09;21.10;99.90
15178;DHT22;7689;53.612;-2.416;2022-09-01T12:58:40;21.00;99.90
15178;DHT22;7689;53.612;-2.416;2022-09-01T13:01:07;21.00;99.90
15178;DHT22;7689;53.612;-2.416;2022-09-01T13:04:27;21.20;99.90
15178;DHT22;7689;53.612;-2.416;2022-09-01T13:07:01;21.40;99.90
15178;DHT22;7689;53.612;-2.416;2022-09-01T13:09:28;21.40;99.90
15178;DHT22;7689;53.612;-2.416;2022-09-01T13:12:08;21.60;99.90
15178;DHT22;7689;53.612;-2.416;2022-09-01T13:14:34;21.30;99.90
15178;DHT22;7689;53.612;-2.416;2022-09-01T13:17:00;21.00;99.90
15178;DHT22;7689;53.612;-2.416;2022-09-01T13:19:25;20.90;99.90
15178;DHT22;7689;53.612;-2.416;2022-09-01T13:21:51;20.80;99.90
15178;DHT22;7689;53.612;-2.416;2022-09-01T13:24:16;20.70;99.90
15178;DHT22;7689;53.612;-2.416;2022-09-01T13:26:42;20.80;99.90
15178;DHT22;7689;53.612;-2.416;2022-09-01T13:29:19;20.90;99.90
15178;DHT22;7689;53.612;-2.416;2022-09-01T13:31:45;21.00;99.90
15178;DHT22;7689;53.612;-2.416;2022-09-01T13:34:11;21.10;99.90
15178;DHT22;7689;53.612;-2.416;2022-09-01T13:36:36;21.30;99.90
15178;DHT22;7689;53.612;-2.416;2022-09-01T13:39:02;21.30;99.90
15178;DHT22;7689;53.612;-2.416;2022-09-01T13:41:27;21.30;99.90
15178;DHT22;7689;53.612;-2.416;2022-09-01T13:43:55;21.30;99.90
15178;DHT22;7689;53.612;-2.416;2022-09-01T13:46:22;21.20;99.90
15178;DHT22;7689;53.612;-2.416;2022-09-01T13:48:47;21.50;99.90
15178;DHT22;7689;53.612;-2.416;2022-09-01T13:51:26;21.80;99.90
15178;DHT22;7689;53.612;-2.416;2022-09-01T13:53:52;21.70;99.90
15178;DHT22;7689;53.612;-2.416;2022-09-01T13:56:18;21.50;99.90
15178;DHT22;7689;53.612;-2.416;2022-09-01T13:58:44;21.20;99.90
15178;DHT22;7689;53.612;-2.416;2022-09-01T14:01:10;21.30;99.90
15178;DHT22;7689;53.612;-2.416;2022-09-01T14:03:38;21.30;99.90
15178;DHT22;7689;53.612;-2.416;2022-09-01T14:06:05;21.30;99.90
15178;DHT22;7689;53.612;-2.416;2022-09-01T14:08:30;21.30;99.90
15178;DHT22;7689;53.612;-2.416;2022-09-01T14:10:58;21.20;99.90
15178;DHT22;7689;53.612;-2.416;2022-09-01T14:13:25;21.40;99.90
15178;DHT22;7689;53.612;-2.416;2022-09-01T14:15:51;21.60;99.90
15178;DHT22;7689;53.612;-2.416;2022-09-01T14:18:18;21.70;99.90
15178;DHT22;7689;53.612;-2.416;2022-09-01T14:20:47;21.80;99.90
15178;DHT22;7689;53.612;-2.416;2022-09-01T14:23:14;21.90;99.90
15178;DHT22;7689;53.612;-2.416;2022-09-01T14:25:49;21.80;99.90
15178;DHT22;7689;53.612;-2.416;2022-09-01T14:28:15;21.80;99.90
15178;DHT22;7689;53.612;-2.416;2022-09-01T14:30:42;21.80;99.90
15178;DHT22;7689;53.612;-2.416;2022-09-01T14:33:09;21.60;99.90
15178;DHT22;7689;53.612;-2.416;2022-09-01T14:35:41;21.50;99.90
15178;DHT22;7689;53.612;-2.416;2022-09-01T14:38:08;21.50;99.90
15178;DHT22;7689;53.612;-2.416;2022-09-01T14:40:36;21.40;99.90
15178;DHT22;7689;53.612;-2.416;2022-09-01T14:43:04;21.50;99.90
15178;DHT22;7689;53.612;-2.416;2022-09-01T14:45:30;21.60;99.90
15178;DHT22;7689;53.612;-2.416;2022-09-01T14:47:58;21.60;99.90
15178;DHT22;7689;53.612;-2.416;2022-09-01T14:50:26;21.60;99.90
15178;DHT22;7689;53.612;-2.416;2022-09-01T14:52:55;21.40;99.90
15178;DHT22;7689;53.612;-2.416;2022-09-01T14:55:22;21.30;99.90
15178;DHT22;7689;53.612;-2.416;2022-09-01T14:57:48;21.00;99.90
15178;DHT22;7689;53.612;-2.416;2022-09-01T15:00:14;20.90;99.90
15178;DHT22;7689;53.612;-2.416;2022-09-01T15:02:42;21.10;99.90
15178;DHT22;7689;53.612;-2.416;2022-09-01T15:05:09;21.10;99.90
15178;DHT22;7689;53.612;-2.416;2022-09-01T15:07:35;21.20;99.90
15178;DHT22;7689;53.612;-2.416;2022-09-01T15:10:03;20.90;99.90
15178;DHT22;7689;53.612;-2.416;2022-09-01T15:12:29;20.60;99.90
15178;DHT22;7689;53.612;-2.416;2022-09-01T15:14:59;20.70;99.90
15178;DHT22;7689;53.612;-2.416;2022-09-01T15:17:26;20.80;99.90
15178;DHT22;7689;53.612;-2.416;2022-09-01T15:19:51;21.00;99.90
15178;DHT22;7689;53.612;-2.416;2022-09-01T15:22:17;20.90;99.90
15178;DHT22;7689;53.612;-2.416;2022-09-01T15:24:44;20.80;99.90
15178;DHT22;7689;53.612;-2.416;2022-09-01T15:27:09;20.70;99.90
15178;DHT22;7689;53.612;-2.416;2022-09-01T15:29:36;20.70;99.90
15178;DHT22;7689;53.612;-2.416;2022-09-01T15:32:13;20.80;99.90
15178;DHT22;7689;53.612;-2.416;2022-09-01T15:34:40;21.00;99.90
15178;DHT22;7689;53.612;-2.416;2022-09-01T15:37:06;21.30;99.90
15178;DHT22;7689;53.612;-2.416;2022-09-01T15:39:31;21.30;99.90
15178;DHT22;7689;53.612;-2.416;2022-09-01T15:41:57;21.20;99.90
15178;DHT22;7689;53.612;-2.416;2022-09-01T15:44:23;21.10;99.90
15178;DHT22;7689;53.612;-2.416;2022-09-01T15:46:48;20.90;99.90
15178;DHT22;7689;53.612;-2.416;2022-09-01T15:49:15;20.80;99.90
15178;DHT22;7689;53.612;-2.416;2022-09-01T15:51:43;20.70;99.90
15178;DHT22;7689;53.612;-2.416;2022-09-01T15:54:12;20.60;99.90
15178;DHT22;7689;53.612;-2.416;2022-09-01T15:56:38;20.70;99.90
15178;DHT22;7689;53.612;-2.416;2022-09-01T15:59:05;20.80;99.90
15178;DHT22;7689;53.612;-2.416;2022-09-01T16:01:34;20.90;99.90
15178;DHT22;7689;53.612;-2.416;2022-09-01T16:04:01;21.00;99.90
15178;DHT22;7689;53.612;-2.416;2022-09-01T16:06:27;21.10;99.90
15178;DHT22;7689;53.612;-2.416;2022-09-01T16:08:54;21.10;99.90
15178;DHT22;7689;53.612;-2.416;2022-09-01T16:11:21;21.20;99.90
15178;DHT22;7689;53.612;-2.416;2022-09-01T16:13:48;21.10;99.90
15178;DHT22;7689;53.612;-2.416;2022-09-01T16:19:40;20.90;99.90
15178;DHT22;7689;53.612;-2.416;2022-09-01T16:24:47;20.80;99.90
15178;DHT22;7689;53.612;-2.416;2022-09-01T16:27:17;20.70;99.90
15178;DHT22;7689;53.612;-2.416;2022-09-01T16:29:53;20.70;99.90
15178;DHT22;7689;53.612;-2.416;2022-09-01T16:32:20;20.70;99.90
15178;DHT22;7689;53.612;-2.416;2022-09-01T16:34:49;20.70;99.90
15178;DHT22;7689;53.612;-2.416;2022-09-01T16:37:36;20.70;99.90
15178;DHT22;7689;53.612;-2.416;2022-09-01T16:56:17;20.40;99.90
15178;DHT22;7689;53.612;-2.416;2022-09-01T17:12:48;19.80;99.90
15178;DHT22;7689;53.612;-2.416;2022-09-01T17:15:31;19.90;99.90
15178;DHT22;7689;53.612;-2.416;2022-09-01T17:20:48;20.30;99.90
15178;DHT22;7689;53.612;-2.416;2022-09-01T17:23:21;20.30;99.90
15178;DHT22;7689;53.612;-2.416;2022-09-01T17:25:57;20.30;99.90
15178;DHT22;7689;53.612;-2.416;2022-09-01T17:28:31;20.20;99.90
15178;DHT22;7689;53.612;-2.416;2022-09-01T17:31:14;20.20;99.90
15178;DHT22;7689;53.612;-2.416;2022-09-01T17:38:59;19.80;99.90